Salmon Arm, Canada
Current Conditions -  °F | °C
As of 8:00 PM on Thursday 27 Nov 2014 (Local Time) from CYKA Reporting Station
Scattered Clouds Scattered Clouds  
Wind Chill: 37°   Ceiling: Unl
Heat Index: 45°   Visibility: 40mi
Dew Point: 37°   Wind: 16mph
Humidity: 76%   Direction: 40°NE
Pressure: 29.41"   Gusts: NA
Location:  50.7°N, 119.27°W
Report Text: CYKA 280400Z 04014KT 40SM FEW060 SCT240 07/03 A2941 RMK SC2CI2 SLP972
Loading
Personal Weather Stations






























Interactive Weather Map New forecast layout! Learn more

10-Day Weather Forecast

Advertisements
Track Severe Weather on mobile